sensor_id;sensor_type;location;lat;lon;timestamp;temperature;humidity
66722;SHT31;53633;49.932;10.884;2023-04-01T00:01:04;9.30;84.53
66722;SHT31;53633;49.932;10.884;2023-04-01T00:03:32;9.36;84.24
66722;SHT31;53633;49.932;10.884;2023-04-01T00:06:01;9.24;84.63
66722;SHT31;53633;49.932;10.884;2023-04-01T00:08:28;9.44;84.17
66722;SHT31;53633;49.932;10.884;2023-04-01T00:10:55;9.40;84.43
66722;SHT31;53633;49.932;10.884;2023-04-01T00:13:22;9.45;83.74
66722;SHT31;53633;49.932;10.884;2023-04-01T00:15:49;9.44;83.50
66722;SHT31;53633;49.932;10.884;2023-04-01T00:18:16;9.34;83.85
66722;SHT31;53633;49.932;10.884;2023-04-01T00:20:44;9.33;84.00
66722;SHT31;53633;49.932;10.884;2023-04-01T00:23:12;9.55;83.32
66722;SHT31;53633;49.932;10.884;2023-04-01T00:25:39;9.48;83.06
66722;SHT31;53633;49.932;10.884;2023-04-01T00:28:06;9.43;83.57
66722;SHT31;53633;49.932;10.884;2023-04-01T00:30:32;9.37;83.54
66722;SHT31;53633;49.932;10.884;2023-04-01T00:32:59;9.33;84.24
66722;SHT31;53633;49.932;10.884;2023-04-01T00:35:26;9.36;84.47
66722;SHT31;53633;49.932;10.884;2023-04-01T00:37:52;9.40;84.13
66722;SHT31;53633;49.932;10.884;2023-04-01T00:40:27;9.48;83.53
66722;SHT31;53633;49.932;10.884;2023-04-01T00:42:54;9.50;83.55
66722;SHT31;53633;49.932;10.884;2023-04-01T00:45:28;9.51;83.68
66722;SHT31;53633;49.932;10.884;2023-04-01T00:47:56;9.43;83.54
66722;SHT31;53633;49.932;10.884;2023-04-01T00:50:24;9.59;82.61
66722;SHT31;53633;49.932;10.884;2023-04-01T00:52:52;9.68;82.39
66722;SHT31;53633;49.932;10.884;2023-04-01T00:55:20;9.58;82.73
66722;SHT31;53633;49.932;10.884;2023-04-01T00:57:50;9.59;82.51
66722;SHT31;53633;49.932;10.884;2023-04-01T01:00:18;9.47;83.10
66722;SHT31;53633;49.932;10.884;2023-04-01T01:02:45;9.48;82.86
66722;SHT31;53633;49.932;10.884;2023-04-01T01:05:14;9.70;82.17
66722;SHT31;53633;49.932;10.884;2023-04-01T01:07:46;9.62;81.97
66722;SHT31;53633;49.932;10.884;2023-04-01T01:10:18;9.58;81.72
66722;SHT31;53633;49.932;10.884;2023-04-01T01:12:54;9.70;81.59
66722;SHT31;53633;49.932;10.884;2023-04-01T01:15:26;9.68;81.75
66722;SHT31;53633;49.932;10.884;2023-04-01T01:17:58;9.57;81.86
66722;SHT31;53633;49.932;10.884;2023-04-01T01:20:46;9.62;81.69
66722;SHT31;53633;49.932;10.884;2023-04-01T01:23:46;9.75;80.78
66722;SHT31;53633;49.932;10.884;2023-04-01T01:26:34;9.79;80.59
66722;SHT31;53633;49.932;10.884;2023-04-01T01:29:11;9.74;81.14
66722;SHT31;53633;49.932;10.884;2023-04-01T01:31:46;9.67;80.92
66722;SHT31;53633;49.932;10.884;2023-04-01T01:34:20;9.57;81.28
66722;SHT31;53633;49.932;10.884;2023-04-01T01:36:54;9.47;81.50
66722;SHT31;53633;49.932;10.884;2023-04-01T01:39:24;9.40;81.68
66722;SHT31;53633;49.932;10.884;2023-04-01T01:41:53;9.34;82.17
66722;SHT31;53633;49.932;10.884;2023-04-01T01:44:23;9.34;81.78
66722;SHT31;53633;49.932;10.884;2023-04-01T01:46:50;9.48;81.53
66722;SHT31;53633;49.932;10.884;2023-04-01T01:49:17;9.58;81.16
66722;SHT31;53633;49.932;10.884;2023-04-01T01:51:45;9.55;81.16
66722;SHT31;53633;49.932;10.884;2023-04-01T01:54:14;9.72;80.57
66722;SHT31;53633;49.932;10.884;2023-04-01T01:56:43;9.70;80.62
66722;SHT31;53633;49.932;10.884;2023-04-01T01:59:11;9.68;80.98
66722;SHT31;53633;49.932;10.884;2023-04-01T02:01:41;9.70;80.86
66722;SHT31;53633;49.932;10.884;2023-04-01T02:04:10;9.65;81.04
66722;SHT31;53633;49.932;10.884;2023-04-01T02:06:39;9.55;81.30
66722;SHT31;53633;49.932;10.884;2023-04-01T02:09:08;9.51;81.35
66722;SHT31;53633;49.932;10.884;2023-04-01T02:11:41;9.62;81.15
66722;SHT31;53633;49.932;10.884;2023-04-01T02:14:13;9.48;81.41
66722;SHT31;53633;49.932;10.884;2023-04-01T02:16:45;9.54;81.54
66722;SHT31;53633;49.932;10.884;2023-04-01T02:19:15;9.52;81.07
66722;SHT31;53633;49.932;10.884;2023-04-01T02:21:43;9.47;81.70
66722;SHT31;53633;49.932;10.884;2023-04-01T02:24:12;9.51;81.28
66722;SHT31;53633;49.932;10.884;2023-04-01T02:26:42;9.51;81.18
66722;SHT31;53633;49.932;10.884;2023-04-01T02:29:11;9.52;81.21
66722;SHT31;53633;49.932;10.884;2023-04-01T02:31:38;9.54;80.87
66722;SHT31;53633;49.932;10.884;2023-04-01T02:34:06;9.50;81.04
66722;SHT31;53633;49.932;10.884;2023-04-01T02:36:34;9.44;80.79
66722;SHT31;53633;49.932;10.884;2023-04-01T02:39:02;9.44;81.32
66722;SHT31;53633;49.932;10.884;2023-04-01T02:41:29;9.61;80.24
66722;SHT31;53633;49.932;10.884;2023-04-01T02:43:57;9.54;80.54
66722;SHT31;53633;49.932;10.884;2023-04-01T02:46:24;9.43;80.50
66722;SHT31;53633;49.932;10.884;2023-04-01T02:48:50;9.47;80.66
66722;SHT31;53633;49.932;10.884;2023-04-01T02:51:17;9.54;80.17
66722;SHT31;53633;49.932;10.884;2023-04-01T02:53:44;9.57;80.12
66722;SHT31;53633;49.932;10.884;2023-04-01T02:56:10;9.54;80.12
66722;SHT31;53633;49.932;10.884;2023-04-01T02:58:37;9.47;79.82
66722;SHT31;53633;49.932;10.884;2023-04-01T03:01:05;9.38;80.58
66722;SHT31;53633;49.932;10.884;2023-04-01T03:03:31;9.45;80.09
66722;SHT31;53633;49.932;10.884;2023-04-01T03:06:01;9.41;80.38
66722;SHT31;53633;49.932;10.884;2023-04-01T03:08:30;9.47;80.23
66722;SHT31;53633;49.932;10.884;2023-04-01T03:10:57;9.51;80.00
66722;SHT31;53633;49.932;10.884;2023-04-01T03:13:26;9.51;80.26
66722;SHT31;53633;49.932;10.884;2023-04-01T03:15:52;9.48;80.20
66722;SHT31;53633;49.932;10.884;2023-04-01T03:18:20;9.44;80.03
66722;SHT31;53633;49.932;10.884;2023-04-01T03:20:47;9.38;80.36
66722;SHT31;53633;49.932;10.884;2023-04-01T03:23:14;9.48;80.37
66722;SHT31;53633;49.932;10.884;2023-04-01T03:25:41;9.36;81.07
66722;SHT31;53633;49.932;10.884;2023-04-01T03:28:07;9.44;80.68
66722;SHT31;53633;49.932;10.884;2023-04-01T03:30:34;9.57;79.68
66722;SHT31;53633;49.932;10.884;2023-04-01T03:33:01;9.55;79.98
66722;SHT31;53633;49.932;10.884;2023-04-01T03:35:29;9.38;80.15
66722;SHT31;53633;49.932;10.884;2023-04-01T03:37:56;9.44;80.32
66722;SHT31;53633;49.932;10.884;2023-04-01T03:40:23;9.50;80.13
66722;SHT31;53633;49.932;10.884;2023-04-01T03:42:50;9.48;80.29
66722;SHT31;53633;49.932;10.884;2023-04-01T03:45:17;9.58;79.61
66722;SHT31;53633;49.932;10.884;2023-04-01T03:47:44;9.41;80.13
66722;SHT31;53633;49.932;10.884;2023-04-01T03:50:10;9.50;80.03
66722;SHT31;53633;49.932;10.884;2023-04-01T03:52:38;9.36;80.31
66722;SHT31;53633;49.932;10.884;2023-04-01T03:55:06;9.33;80.40
66722;SHT31;53633;49.932;10.884;2023-04-01T03:57:33;9.33;80.88
66722;SHT31;53633;49.932;10.884;2023-04-01T03:59:59;9.57;79.80
66722;SHT31;53633;49.932;10.884;2023-04-01T04:02:26;9.54;80.06
66722;SHT31;53633;49.932;10.884;2023-04-01T04:04:53;9.40;80.17
66722;SHT31;53633;49.932;10.884;2023-04-01T04:07:20;9.47;80.22
66722;SHT31;53633;49.932;10.884;2023-04-01T04:09:48;9.44;80.23
66722;SHT31;53633;49.932;10.884;2023-04-01T04:12:14;9.28;81.35
66722;SHT31;53633;49.932;10.884;2023-04-01T04:14:41;9.23;81.36
66722;SHT31;53633;49.932;10.884;2023-04-01T04:17:10;9.43;80.60
66722;SHT31;53633;49.932;10.884;2023-04-01T04:19:36;9.44;80.49
66722;SHT31;53633;49.932;10.884;2023-04-01T04:22:03;9.33;80.76
66722;SHT31;53633;49.932;10.884;2023-04-01T04:24:30;9.31;80.46
66722;SHT31;53633;49.932;10.884;2023-04-01T04:26:58;9.50;79.66
66722;SHT31;53633;49.932;10.884;2023-04-01T04:29:24;9.43;80.29
66722;SHT31;53633;49.932;10.884;2023-04-01T04:31:51;9.55;79.71
66722;SHT31;53633;49.932;10.884;2023-04-01T04:34:18;9.40;80.01
66722;SHT31;53633;49.932;10.884;2023-04-01T04:36:44;9.50;79.93
66722;SHT31;53633;49.932;10.884;2023-04-01T04:39:11;9.48;79.98
66722;SHT31;53633;49.932;10.884;2023-04-01T04:41:38;9.43;80.53
66722;SHT31;53633;49.932;10.884;2023-04-01T04:44:06;9.44;80.25
66722;SHT31;53633;49.932;10.884;2023-04-01T04:46:32;9.47;79.85
66722;SHT31;53633;49.932;10.884;2023-04-01T04:48:59;9.48;80.03
66722;SHT31;53633;49.932;10.884;2023-04-01T04:51:26;9.44;80.20
66722;SHT31;53633;49.932;10.884;2023-04-01T04:53:52;9.47;80.45
66722;SHT31;53633;49.932;10.884;2023-04-01T04:56:20;9.50;80.57
66722;SHT31;53633;49.932;10.884;2023-04-01T04:58:47;9.33;81.25
66722;SHT31;53633;49.932;10.884;2023-04-01T05:01:17;9.30;80.92
66722;SHT31;53633;49.932;10.884;2023-04-01T05:03:44;9.41;80.25
66722;SHT31;53633;49.932;10.884;2023-04-01T05:06:13;9.44;80.03
66722;SHT31;53633;49.932;10.884;2023-04-01T05:08:41;9.51;79.69
66722;SHT31;53633;49.932;10.884;2023-04-01T05:11:10;9.54;79.80
66722;SHT31;53633;49.932;10.884;2023-04-01T05:13:39;9.47;80.10
66722;SHT31;53633;49.932;10.884;2023-04-01T05:16:08;9.45;79.97
66722;SHT31;53633;49.932;10.884;2023-04-01T05:18:36;9.48;79.93
66722;SHT31;53633;49.932;10.884;2023-04-01T05:21:02;9.52;79.89
66722;SHT31;53633;49.932;10.884;2023-04-01T05:23:31;9.59;79.31
66722;SHT31;53633;49.932;10.884;2023-04-01T05:25:57;9.48;79.91
66722;SHT31;53633;49.932;10.884;2023-04-01T05:28:24;9.47;80.35
66722;SHT31;53633;49.932;10.884;2023-04-01T05:30:51;9.54;79.83
66722;SHT31;53633;49.932;10.884;2023-04-01T05:33:17;9.61;79.14
66722;SHT31;53633;49.932;10.884;2023-04-01T05:35:46;9.59;79.17
66722;SHT31;53633;49.932;10.884;2023-04-01T05:38:12;9.57;79.37
66722;SHT31;53633;49.932;10.884;2023-04-01T05:40:39;9.75;78.81
66722;SHT31;53633;49.932;10.884;2023-04-01T05:43:06;9.71;79.13
66722;SHT31;53633;49.932;10.884;2023-04-01T05:45:33;9.72;79.21
66722;SHT31;53633;49.932;10.884;2023-04-01T05:48:01;9.70;78.96
66722;SHT31;53633;49.932;10.884;2023-04-01T05:50:27;9.54;80.04
66722;SHT31;53633;49.932;10.884;2023-04-01T05:52:55;9.48;80.27
66722;SHT31;53633;49.932;10.884;2023-04-01T05:55:22;9.52;80.37
66722;SHT31;53633;49.932;10.884;2023-04-01T05:57:49;9.57;79.97
66722;SHT31;53633;49.932;10.884;2023-04-01T06:00:16;9.64;79.97
66722;SHT31;53633;49.932;10.884;2023-04-01T06:02:43;9.59;79.91
66722;SHT31;53633;49.932;10.884;2023-04-01T06:05:14;9.58;80.08
66722;SHT31;53633;49.932;10.884;2023-04-01T06:07:42;9.68;79.64
66722;SHT31;53633;49.932;10.884;2023-04-01T06:10:12;9.61;79.97
66722;SHT31;53633;49.932;10.884;2023-04-01T06:12:51;9.68;80.15
66722;SHT31;53633;49.932;10.884;2023-04-01T06:15:31;9.59;80.51
66722;SHT31;53633;49.932;10.884;2023-04-01T06:21:06;9.65;80.75
66722;SHT31;53633;49.932;10.884;2023-04-01T06:23:47;9.70;80.75
66722;SHT31;53633;49.932;10.884;2023-04-01T06:26:30;9.77;79.98
66722;SHT31;53633;49.932;10.884;2023-04-01T06:29:20;9.89;79.89
66722;SHT31;53633;49.932;10.884;2023-04-01T06:32:05;9.96;79.47
66722;SHT31;53633;49.932;10.884;2023-04-01T06:34:57;9.93;79.99
66722;SHT31;53633;49.932;10.884;2023-04-01T06:37:41;9.95;79.65
66722;SHT31;53633;49.932;10.884;2023-04-01T06:40:38;9.92;80.77
66722;SHT31;53633;49.932;10.884;2023-04-01T06:43:13;9.81;81.14
66722;SHT31;53633;49.932;10.884;2023-04-01T06:45:48;9.78;81.79
66722;SHT31;53633;49.932;10.884;2023-04-01T06:48:29;9.75;81.70
66722;SHT31;53633;49.932;10.884;2023-04-01T06:51:03;9.88;80.92
66722;SHT31;53633;49.932;10.884;2023-04-01T06:53:39;9.83;81.05
66722;SHT31;53633;49.932;10.884;2023-04-01T06:56:10;9.83;81.60
66722;SHT31;53633;49.932;10.884;2023-04-01T06:58:42;9.92;80.78
66722;SHT31;53633;49.932;10.884;2023-04-01T07:01:14;9.78;82.03
66722;SHT31;53633;49.932;10.884;2023-04-01T07:03:47;9.82;81.93
66722;SHT31;53633;49.932;10.884;2023-04-01T07:06:22;9.89;82.08
66722;SHT31;53633;49.932;10.884;2023-04-01T07:08:51;9.86;82.00
66722;SHT31;53633;49.932;10.884;2023-04-01T07:11:24;9.86;83.03
66722;SHT31;53633;49.932;10.884;2023-04-01T07:13:54;9.93;82.10
66722;SHT31;53633;49.932;10.884;2023-04-01T07:16:25;9.95;82.69
66722;SHT31;53633;49.932;10.884;2023-04-01T07:18:57;9.89;83.00
66722;SHT31;53633;49.932;10.884;2023-04-01T07:21:27;9.85;83.37
66722;SHT31;53633;49.932;10.884;2023-04-01T07:24:01;9.91;83.23
66722;SHT31;53633;49.932;10.884;2023-04-01T07:26:29;9.95;83.08
66722;SHT31;53633;49.932;10.884;2023-04-01T07:28:58;9.88;83.55
66722;SHT31;53633;49.932;10.884;2023-04-01T07:31:40;9.93;83.59
66722;SHT31;53633;49.932;10.884;2023-04-01T07:34:19;10.03;83.52
66722;SHT31;53633;49.932;10.884;2023-04-01T07:36:52;9.99;82.85
66722;SHT31;53633;49.932;10.884;2023-04-01T07:39:30;9.98;83.41
66722;SHT31;53633;49.932;10.884;2023-04-01T07:42:02;9.78;83.93
66722;SHT31;53633;49.932;10.884;2023-04-01T07:44:39;9.75;85.06
66722;SHT31;53633;49.932;10.884;2023-04-01T07:47:25;9.78;84.94
66722;SHT31;53633;49.932;10.884;2023-04-01T07:50:03;9.77;85.67
66722;SHT31;53633;49.932;10.884;2023-04-01T07:52:41;9.67;84.97
66722;SHT31;53633;49.932;10.884;2023-04-01T07:55:16;9.67;85.82
66722;SHT31;53633;49.932;10.884;2023-04-01T07:57:49;9.65;86.94
66722;SHT31;53633;49.932;10.884;2023-04-01T08:00:22;9.57;87.87
66722;SHT31;53633;49.932;10.884;2023-04-01T08:03:03;9.64;86.21
66722;SHT31;53633;49.932;10.884;2023-04-01T08:05:40;9.67;87.07
66722;SHT31;53633;49.932;10.884;2023-04-01T08:08:16;9.62;87.28
66722;SHT31;53633;49.932;10.884;2023-04-01T08:10:49;9.64;87.55
66722;SHT31;53633;49.932;10.884;2023-04-01T08:13:26;9.71;87.17
66722;SHT31;53633;49.932;10.884;2023-04-01T08:16:06;9.67;89.32
66722;SHT31;53633;49.932;10.884;2023-04-01T08:18:39;9.77;88.37
66722;SHT31;53633;49.932;10.884;2023-04-01T08:21:11;9.78;89.08
66722;SHT31;53633;49.932;10.884;2023-04-01T08:23:43;9.82;89.02
66722;SHT31;53633;49.932;10.884;2023-04-01T08:26:13;9.89;87.88
66722;SHT31;53633;49.932;10.884;2023-04-01T08:28:45;9.92;89.24
66722;SHT31;53633;49.932;10.884;2023-04-01T08:31:18;10.20;87.10
66722;SHT31;53633;49.932;10.884;2023-04-01T08:33:47;10.30;87.50
66722;SHT31;53633;49.932;10.884;2023-04-01T08:36:17;10.36;87.51
66722;SHT31;53633;49.932;10.884;2023-04-01T08:38:51;10.17;87.62
66722;SHT31;53633;49.932;10.884;2023-04-01T08:50:41;10.21;88.49
66722;SHT31;53633;49.932;10.884;2023-04-01T08:53:17;10.30;89.04
66722;SHT31;53633;49.932;10.884;2023-04-01T08:56:00;10.46;86.64
66722;SHT31;53633;49.932;10.884;2023-04-01T08:58:54;10.48;87.24
66722;SHT31;53633;49.932;10.884;2023-04-01T09:01:37;10.60;86.40
66722;SHT31;53633;49.932;10.884;2023-04-01T09:04:23;10.60;86.75
66722;SHT31;53633;49.932;10.884;2023-04-01T09:06:57;10.67;86.11
66722;SHT31;53633;49.932;10.884;2023-04-01T09:12:50;10.54;84.17
66722;SHT31;53633;49.932;10.884;2023-04-01T09:21:31;10.91;84.07
66722;SHT31;53633;49.932;10.884;2023-04-01T09:24:26;10.98;81.99
66722;SHT31;53633;49.932;10.884;2023-04-01T09:27:04;11.01;81.86
66722;SHT31;53633;49.932;10.884;2023-04-01T09:29:50;10.84;83.35
66722;SHT31;53633;49.932;10.884;2023-04-01T09:32:49;10.81;81.47
66722;SHT31;53633;49.932;10.884;2023-04-01T09:35:23;10.91;80.83
66722;SHT31;53633;49.932;10.884;2023-04-01T09:38:06;10.98;81.82
66722;SHT31;53633;49.932;10.884;2023-04-01T09:40:45;10.96;81.47
66722;SHT31;53633;49.932;10.884;2023-04-01T09:43:26;10.99;80.96
66722;SHT31;53633;49.932;10.884;2023-04-01T09:46:05;10.79;84.27
66722;SHT31;53633;49.932;10.884;2023-04-01T09:48:46;10.81;81.23
66722;SHT31;53633;49.932;10.884;2023-04-01T09:51:26;10.98;79.42
66722;SHT31;53633;49.932;10.884;2023-04-01T09:54:08;10.74;80.64
66722;SHT31;53633;49.932;10.884;2023-04-01T10:00:09;10.75;81.36
66722;SHT31;53633;49.932;10.884;2023-04-01T10:06:48;10.65;80.04
66722;SHT31;53633;49.932;10.884;2023-04-01T10:09:58;10.51;81.24
66722;SHT31;53633;49.932;10.884;2023-04-01T10:12:57;10.67;81.67
66722;SHT31;53633;49.932;10.884;2023-04-01T10:15:38;10.53;82.28
66722;SHT31;53633;49.932;10.884;2023-04-01T10:21:59;10.65;83.40
66722;SHT31;53633;49.932;10.884;2023-04-01T10:24:47;10.78;84.64
66722;SHT31;53633;49.932;10.884;2023-04-01T10:27:49;11.02;83.46
66722;SHT31;53633;49.932;10.884;2023-04-01T10:30:44;10.82;85.55
66722;SHT31;53633;49.932;10.884;2023-04-01T10:33:38;11.05;86.14
66722;SHT31;53633;49.932;10.884;2023-04-01T10:36:40;11.12;86.06
66722;SHT31;53633;49.932;10.884;2023-04-01T10:39:34;11.09;85.79
66722;SHT31;53633;49.932;10.884;2023-04-01T10:42:43;11.11;83.70
66722;SHT31;53633;49.932;10.884;2023-04-01T10:52:05;10.95;85.15
66722;SHT31;53633;49.932;10.884;2023-04-01T10:54:49;10.74;85.73
66722;SHT31;53633;49.932;10.884;2023-04-01T10:57:44;10.94;84.69
66722;SHT31;53633;49.932;10.884;2023-04-01T11:00:35;11.02;84.12
66722;SHT31;53633;49.932;10.884;2023-04-01T11:06:47;11.34;84.32
66722;SHT31;53633;49.932;10.884;2023-04-01T11:09:46;11.54;84.77
66722;SHT31;53633;49.932;10.884;2023-04-01T11:12:37;11.50;83.38
66722;SHT31;53633;49.932;10.884;2023-04-01T11:15:31;11.39;82.54
66722;SHT31;53633;49.932;10.884;2023-04-01T11:21:46;11.32;82.41
66722;SHT31;53633;49.932;10.884;2023-04-01T11:24:36;11.50;83.88
66722;SHT31;53633;49.932;10.884;2023-04-01T11:27:16;11.27;83.42
66722;SHT31;53633;49.932;10.884;2023-04-01T11:30:11;11.42;82.68
66722;SHT31;53633;49.932;10.884;2023-04-01T11:32:52;11.39;82.84
66722;SHT31;53633;49.932;10.884;2023-04-01T11:35:28;11.29;84.61
66722;SHT31;53633;49.932;10.884;2023-04-01T11:38:07;11.02;85.28
66722;SHT31;53633;49.932;10.884;2023-04-01T11:40:41;11.04;84.55
66722;SHT31;53633;49.932;10.884;2023-04-01T11:43:15;10.99;85.26
66722;SHT31;53633;49.932;10.884;2023-04-01T11:46:03;11.08;85.10
66722;SHT31;53633;49.932;10.884;2023-04-01T11:48:44;10.95;83.86
66722;SHT31;53633;49.932;10.884;2023-04-01T11:54:30;11.05;84.31
66722;SHT31;53633;49.932;10.884;2023-04-01T11:57:12;10.77;85.60
66722;SHT31;53633;49.932;10.884;2023-04-01T11:59:56;10.94;85.80
66722;SHT31;53633;49.932;10.884;2023-04-01T12:02:29;10.95;84.32
66722;SHT31;53633;49.932;10.884;2023-04-01T12:05:24;10.99;85.29
66722;SHT31;53633;49.932;10.884;2023-04-01T12:08:06;10.96;86.18
66722;SHT31;53633;49.932;10.884;2023-04-01T12:10:39;11.05;86.78
66722;SHT31;53633;49.932;10.884;2023-04-01T12:13:19;11.11;87.43
66722;SHT31;53633;49.932;10.884;2023-04-01T12:16:00;11.15;86.79
66722;SHT31;53633;49.932;10.884;2023-04-01T12:18:36;11.30;85.86
66722;SHT31;53633;49.932;10.884;2023-04-01T12:21:17;11.36;86.19
66722;SHT31;53633;49.932;10.884;2023-04-01T12:24:14;11.51;84.84
66722;SHT31;53633;49.932;10.884;2023-04-01T12:27:07;11.80;83.70
66722;SHT31;53633;49.932;10.884;2023-04-01T12:29:54;11.92;85.76
66722;SHT31;53633;49.932;10.884;2023-04-01T12:32:31;11.81;85.72
66722;SHT31;53633;49.932;10.884;2023-04-01T12:35:18;11.89;85.86
66722;SHT31;53633;49.932;10.884;2023-04-01T12:37:57;12.04;84.86
66722;SHT31;53633;49.932;10.884;2023-04-01T12:40:45;12.04;84.93
66722;SHT31;53633;49.932;10.884;2023-04-01T12:46:13;12.06;85.74
66722;SHT31;53633;49.932;10.884;2023-04-01T12:49:09;11.97;86.35
66722;SHT31;53633;49.932;10.884;2023-04-01T12:51:48;11.82;87.29
66722;SHT31;53633;49.932;10.884;2023-04-01T12:54:55;11.78;86.24
66722;SHT31;53633;49.932;10.884;2023-04-01T12:57:51;11.75;87.78
66722;SHT31;53633;49.932;10.884;2023-04-01T13:00:42;11.74;87.93
66722;SHT31;53633;49.932;10.884;2023-04-01T13:03:39;11.87;86.05
66722;SHT31;53633;49.932;10.884;2023-04-01T13:06:23;11.77;88.49
66722;SHT31;53633;49.932;10.884;2023-04-01T13:08:57;11.75;86.48
66722;SHT31;53633;49.932;10.884;2023-04-01T13:11:35;11.57;86.20
66722;SHT31;53633;49.932;10.884;2023-04-01T13:14:42;11.50;87.39
66722;SHT31;53633;49.932;10.884;2023-04-01T13:17:16;11.40;87.82
66722;SHT31;53633;49.932;10.884;2023-04-01T13:19:50;11.37;88.97
66722;SHT31;53633;49.932;10.884;2023-04-01T13:22:41;11.51;87.52
66722;SHT31;53633;49.932;10.884;2023-04-01T13:25:18;11.50;86.95
66722;SHT31;53633;49.932;10.884;2023-04-01T13:27:54;11.37;89.51
66722;SHT31;53633;49.932;10.884;2023-04-01T13:30:27;11.33;89.07
66722;SHT31;53633;49.932;10.884;2023-04-01T13:32:59;11.44;87.76
66722;SHT31;53633;49.932;10.884;2023-04-01T13:35:38;11.40;88.01
66722;SHT31;53633;49.932;10.884;2023-04-01T13:38:39;11.46;89.06
66722;SHT31;53633;49.932;10.884;2023-04-01T13:41:18;11.39;89.27
66722;SHT31;53633;49.932;10.884;2023-04-01T13:43:51;11.30;90.01
66722;SHT31;53633;49.932;10.884;2023-04-01T13:46:38;11.44;88.69
66722;SHT31;53633;49.932;10.884;2023-04-01T13:49:43;11.47;88.51
66722;SHT31;53633;49.932;10.884;2023-04-01T13:55:37;11.02;88.97
66722;SHT31;53633;49.932;10.884;2023-04-01T13:58:31;10.89;91.57
66722;SHT31;53633;49.932;10.884;2023-04-01T14:01:12;11.09;89.69
66722;SHT31;53633;49.932;10.884;2023-04-01T14:03:49;11.04;89.94
66722;SHT31;53633;49.932;10.884;2023-04-01T14:06:35;10.95;90.52
66722;SHT31;53633;49.932;10.884;2023-04-01T14:09:14;10.92;90.33
66722;SHT31;53633;49.932;10.884;2023-04-01T14:11:50;10.89;90.93
66722;SHT31;53633;49.932;10.884;2023-04-01T14:14:31;10.98;90.48
66722;SHT31;53633;49.932;10.884;2023-04-01T14:17:10;10.94;90.75
66722;SHT31;53633;49.932;10.884;2023-04-01T14:19:50;11.04;90.60
66722;SHT31;53633;49.932;10.884;2023-04-01T14:22:25;11.08;89.66
66722;SHT31;53633;49.932;10.884;2023-04-01T14:25:13;11.20;88.13
66722;SHT31;53633;49.932;10.884;2023-04-01T14:27:52;11.15;88.93
66722;SHT31;53633;49.932;10.884;2023-04-01T14:30:30;11.20;88.59
66722;SHT31;53633;49.932;10.884;2023-04-01T14:33:06;11.26;87.86
66722;SHT31;53633;49.932;10.884;2023-04-01T14:35:46;11.37;89.10
66722;SHT31;53633;49.932;10.884;2023-04-01T14:38:30;11.47;87.62
66722;SHT31;53633;49.932;10.884;2023-04-01T14:41:10;11.46;87.21
66722;SHT31;53633;49.932;10.884;2023-04-01T14:47:08;11.61;86.55
66722;SHT31;53633;49.932;10.884;2023-04-01T14:49:41;11.71;86.10
66722;SHT31;53633;49.932;10.884;2023-04-01T14:52:13;11.66;85.78
66722;SHT31;53633;49.932;10.884;2023-04-01T14:54:44;11.75;86.04
66722;SHT31;53633;49.932;10.884;2023-04-01T14:57:14;11.69;87.11
66722;SHT31;53633;49.932;10.884;2023-04-01T14:59:47;11.70;86.47
66722;SHT31;53633;49.932;10.884;2023-04-01T15:02:44;11.81;86.02
66722;SHT31;53633;49.932;10.884;2023-04-01T15:05:24;11.88;86.60
66722;SHT31;53633;49.932;10.884;2023-04-01T15:08:15;12.02;86.60
66722;SHT31;53633;49.932;10.884;2023-04-01T15:11:16;11.85;85.88
66722;SHT31;53633;49.932;10.884;2023-04-01T15:14:01;11.51;87.24
66722;SHT31;53633;49.932;10.884;2023-04-01T15:16:35;11.47;86.81
66722;SHT31;53633;49.932;10.884;2023-04-01T15:19:14;11.19;87.25
66722;SHT31;53633;49.932;10.884;2023-04-01T15:22:15;11.20;88.33
66722;SHT31;53633;49.932;10.884;2023-04-01T15:25:00;11.22;89.06
66722;SHT31;53633;49.932;10.884;2023-04-01T15:27:37;11.26;88.12
66722;SHT31;53633;49.932;10.884;2023-04-01T15:30:22;11.36;88.21
66722;SHT31;53633;49.932;10.884;2023-04-01T15:33:12;11.36;88.39
66722;SHT31;53633;49.932;10.884;2023-04-01T15:35:46;11.32;87.83
66722;SHT31;53633;49.932;10.884;2023-04-01T15:38:24;11.22;87.76
66722;SHT31;53633;49.932;10.884;2023-04-01T15:40:59;11.26;87.76
66722;SHT31;53633;49.932;10.884;2023-04-01T15:43:36;11.18;88.22
66722;SHT31;53633;49.932;10.884;2023-04-01T15:49:05;11.15;88.03
66722;SHT31;53633;49.932;10.884;2023-04-01T15:51:43;11.02;88.83
66722;SHT31;53633;49.932;10.884;2023-04-01T15:54:27;10.95;89.75
66722;SHT31;53633;49.932;10.884;2023-04-01T15:57:06;11.04;89.41
66722;SHT31;53633;49.932;10.884;2023-04-01T15:59:51;11.05;88.95
66722;SHT31;53633;49.932;10.884;2023-04-01T16:02:22;10.94;90.28
66722;SHT31;53633;49.932;10.884;2023-04-01T16:04:58;11.01;89.73
66722;SHT31;53633;49.932;10.884;2023-04-01T16:07:48;10.88;89.42
66722;SHT31;53633;49.932;10.884;2023-04-01T16:10:38;10.99;89.75
66722;SHT31;53633;49.932;10.884;2023-04-01T16:16:12;10.86;89.52
66722;SHT31;53633;49.932;10.884;2023-04-01T16:18:51;10.91;88.47
66722;SHT31;53633;49.932;10.884;2023-04-01T16:21:35;10.94;88.54
66722;SHT31;53633;49.932;10.884;2023-04-01T16:24:12;10.81;89.53
66722;SHT31;53633;49.932;10.884;2023-04-01T16:26:46;10.79;89.52
66722;SHT31;53633;49.932;10.884;2023-04-01T16:29:21;10.75;90.30
66722;SHT31;53633;49.932;10.884;2023-04-01T16:31:54;10.82;89.45
66722;SHT31;53633;49.932;10.884;2023-04-01T16:34:29;10.96;88.61
66722;SHT31;53633;49.932;10.884;2023-04-01T16:37:04;10.77;89.14
66722;SHT31;53633;49.932;10.884;2023-04-01T16:39:37;10.67;89.23
66722;SHT31;53633;49.932;10.884;2023-04-01T16:42:24;10.75;89.21
66722;SHT31;53633;49.932;10.884;2023-04-01T16:44:54;10.58;89.35
66722;SHT31;53633;49.932;10.884;2023-04-01T16:47:27;10.57;89.92
66722;SHT31;53633;49.932;10.884;2023-04-01T16:49:59;10.44;90.45
66722;SHT31;53633;49.932;10.884;2023-04-01T16:52:35;10.51;90.45
66722;SHT31;53633;49.932;10.884;2023-04-01T16:55:15;10.37;90.96
66722;SHT31;53633;49.932;10.884;2023-04-01T16:57:48;10.43;90.35
66722;SHT31;53633;49.932;10.884;2023-04-01T17:00:22;10.30;90.60
66722;SHT31;53633;49.932;10.884;2023-04-01T17:02:58;10.33;90.53
66722;SHT31;53633;49.932;10.884;2023-04-01T17:05:44;10.21;90.69
66722;SHT31;53633;49.932;10.884;2023-04-01T17:08:23;10.28;90.56
66722;SHT31;53633;49.932;10.884;2023-04-01T17:10:56;10.24;90.60
66722;SHT31;53633;49.932;10.884;2023-04-01T17:13:40;10.16;91.07
66722;SHT31;53633;49.932;10.884;2023-04-01T17:16:21;10.13;91.42
66722;SHT31;53633;49.932;10.884;2023-04-01T17:18:57;10.03;91.77
66722;SHT31;53633;49.932;10.884;2023-04-01T17:21:33;10.06;91.55
66722;SHT31;53633;49.932;10.884;2023-04-01T17:24:05;10.06;91.67